Time;durP1;ratioP1;P1;durP2;ratioP2;P2;SDS_P1;SDS_P2;PMS_P1;PMS_P2;Temp;Humidity;BMP_temperature;BMP_pressure;BME280_temperature;BME280_humidity;BME280_pressure;Samples;Min_cycle;Max_cycle;Signal;HPM_P1;HPM_P2
2023/11/01 00:00:24;;;;;;;2.00;1.35;;;;;;;9.57;100.00;100247.38;6199862;28;20045;-75
2023/11/01 00:03:26;;;;;;;2.58;1.92;;;;;;;9.57;100.00;100238.69;6209752;28;20043;-76
2023/11/01 00:06:27;;;;;;;4.32;2.17;;;;;;;9.51;100.00;100225.91;6202964;28;20046;-76
2023/11/01 00:09:30;;;;;;;4.70;2.30;;;;;;;9.52;100.00;100222.34;6203227;28;20054;-76
2023/11/01 00:12:31;;;;;;;3.55;2.25;;;;;;;9.51;100.00;100229.38;6212788;28;20061;-76
2023/11/01 00:15:33;;;;;;;7.28;2.63;;;;;;;9.50;100.00;100222.47;6227367;28;20053;-76
2023/11/01 00:18:34;;;;;;;4.85;2.88;;;;;;;9.51;100.00;100228.53;6227104;28;20072;-76
2023/11/01 00:21:36;;;;;;;4.53;2.72;;;;;;;9.49;100.00;100215.50;6224854;28;20056;-76
2023/11/01 00:24:38;;;;;;;7.30;3.10;;;;;;;9.45;100.00;100219.25;6213468;28;20351;-76
2023/11/01 00:27:40;;;;;;;5.82;2.47;;;;;;;9.43;100.00;100221.09;6226961;28;20069;-75
2023/11/01 00:30:41;;;;;;;5.43;2.50;;;;;;;9.36;100.00;100219.78;6226780;28;20438;-76
2023/11/01 00:33:43;;;;;;;4.72;2.63;;;;;;;9.30;100.00;100228.81;6225726;28;20046;-76
2023/11/01 00:36:44;;;;;;;5.60;3.03;;;;;;;9.29;100.00;100237.63;6226735;28;20184;-76
2023/11/01 00:39:47;;;;;;;6.90;3.53;;;;;;;9.35;100.00;100244.28;6226776;28;20050;-76
2023/11/01 00:42:49;;;;;;;5.20;2.65;;;;;;;9.36;100.00;100241.59;6227212;28;20045;-76
2023/11/01 00:45:50;;;;;;;5.35;3.33;;;;;;;9.40;100.00;100237.00;6226477;28;20128;-75
2023/11/01 00:48:51;;;;;;;6.00;3.30;;;;;;;9.47;100.00;100240.13;6226657;28;20057;-76
2023/11/01 00:51:53;;;;;;;5.82;3.05;;;;;;;9.49;100.00;100243.50;6226167;28;20173;-76
2023/11/01 00:54:56;;;;;;;8.00;3.72;;;;;;;9.58;100.00;100240.34;6224351;28;20485;-75
2023/11/01 00:57:57;;;;;;;6.47;3.47;;;;;;;9.65;100.00;100234.69;6212830;28;20046;-76
2023/11/01 01:00:58;;;;;;;10.43;4.22;;;;;;;9.64;100.00;100219.03;6215775;28;20053;-76
2023/11/01 01:04:00;;;;;;;7.82;4.10;;;;;;;9.67;100.00;100210.97;6209156;28;20046;-75
2023/11/01 01:07:01;;;;;;;9.13;5.13;;;;;;;9.62;100.00;100213.84;6223813;28;20054;-77
2023/11/01 01:10:05;;;;;;;10.35;4.97;;;;;;;9.58;100.00;100207.13;6226157;28;20058;-78
2023/11/01 01:13:06;;;;;;;12.98;5.15;;;;;;;9.59;100.00;100218.47;6225820;28;20354;-75
2023/11/01 01:16:08;;;;;;;12.38;5.10;;;;;;;9.53;100.00;100222.25;6226261;28;20050;-75
2023/11/01 01:19:09;;;;;;;8.85;5.15;;;;;;;9.53;100.00;100205.69;6225953;28;20065;-75
2023/11/01 01:22:11;;;;;;;8.07;4.72;;;;;;;9.50;100.00;100209.34;6225287;28;20188;-77
2023/11/01 01:25:13;;;;;;;9.15;5.28;;;;;;;9.52;100.00;100206.63;6225927;28;20057;-76
2023/11/01 01:28:15;;;;;;;12.02;4.93;;;;;;;9.52;100.00;100204.84;6226154;28;20061;-74
2023/11/01 01:31:16;;;;;;;14.27;6.00;;;;;;;9.51;100.00;100205.78;6225736;28;20054;-77
2023/11/01 01:34:18;;;;;;;12.02;6.28;;;;;;;9.48;100.00;100197.22;6225688;28;20050;-75
2023/11/01 01:37:19;;;;;;;10.70;6.05;;;;;;;9.49;100.00;100193.66;6225682;28;20189;-77
2023/11/01 01:40:22;;;;;;;19.15;6.82;;;;;;;9.50;100.00;100193.59;6225591;28;20045;-77
2023/11/01 01:43:24;;;;;;;15.85;6.57;;;;;;;9.46;100.00;100186.84;6225689;28;20042;-76
2023/11/01 01:46:27;;;;;;;14.25;7.30;;;;;;;9.44;100.00;100185.22;6228198;28;20046;-75
2023/11/01 01:49:29;;;;;;;12.13;6.78;;;;;;;9.43;100.00;100194.03;6215818;28;20054;-77
2023/11/01 01:52:32;;;;;;;14.98;6.75;;;;;;;9.46;100.00;100186.00;6230143;28;20045;-77
2023/11/01 01:55:35;;;;;;;16.00;6.68;;;;;;;9.51;100.00;100191.81;6230586;28;20057;-77
2023/11/01 01:58:38;;;;;;;18.33;7.97;;;;;;;9.55;100.00;100190.72;6230350;28;20050;-77
2023/11/01 02:01:40;;;;;;;18.65;8.13;;;;;;;9.58;100.00;100180.91;6230246;28;20050;-75
2023/11/01 02:04:42;;;;;;;16.80;8.27;;;;;;;9.60;100.00;100165.06;6230371;28;20050;-75
2023/11/01 02:07:43;;;;;;;19.38;8.82;;;;;;;9.61;100.00;100172.81;6229938;28;20439;-77
2023/11/01 02:10:47;;;;;;;14.57;7.82;;;;;;;9.65;100.00;100163.84;6230155;28;20053;-77
2023/11/01 02:13:48;;;;;;;14.85;7.60;;;;;;;9.66;100.00;100167.31;6229931;28;20478;-77
2023/11/01 02:16:50;;;;;;;16.95;8.32;;;;;;;9.63;100.00;100172.75;6230100;28;20057;-77
2023/11/01 02:19:52;;;;;;;20.08;10.05;;;;;;;9.66;100.00;100169.94;6229599;28;20498;-77
2023/11/01 02:22:55;;;;;;;20.00;9.73;;;;;;;9.63;100.00;100168.34;6229474;28;20046;-77
2023/11/01 02:25:58;;;;;;;19.00;9.00;;;;;;;9.65;100.00;100158.59;6229712;28;20188;-77
2023/11/01 02:28:59;;;;;;;23.60;9.57;;;;;;;9.70;100.00;100157.47;6229637;28;20049;-77
2023/11/01 02:32:01;;;;;;;19.40;9.82;;;;;;;9.70;100.00;100147.00;6229408;28;20061;-77
2023/11/01 02:35:03;;;;;;;22.65;9.95;;;;;;;9.73;100.00;100145.03;6229393;28;20061;-77
2023/11/01 02:38:05;;;;;;;22.02;10.07;;;;;;;9.73;100.00;100139.78;6229581;28;20053;-77
2023/11/01 02:41:08;;;;;;;16.90;8.90;;;;;;;9.72;100.00;100139.84;6229159;28;20057;-77
2023/11/01 02:44:09;;;;;;;19.30;9.27;;;;;;;9.73;100.00;100138.94;6229535;28;20049;-77
2023/11/01 02:47:10;;;;;;;18.70;8.18;;;;;;;9.77;100.00;100145.69;6229218;28;20054;-77
2023/11/01 02:50:15;;;;;;;20.83;8.43;;;;;;;9.78;100.00;100136.88;6229262;28;20065;-77
2023/11/01 02:53:17;;;;;;;19.50;10.15;;;;;;;9.82;100.00;100147.09;6214223;28;20058;-76
2023/11/01 02:56:22;;;;;;;22.55;9.85;;;;;;;9.83;100.00;100145.31;6211583;28;20438;-77
2023/11/01 02:59:23;;;;;;;24.85;9.45;;;;;;;9.84;100.00;100134.72;6205416;28;20061;-78
2023/11/01 03:02:25;;;;;;;20.30;9.43;;;;;;;9.88;100.00;100138.84;6209980;28;20465;-77
2023/11/01 03:05:27;;;;;;;17.83;9.55;;;;;;;9.81;100.00;100126.19;6204558;28;20046;-77
2023/11/01 03:08:29;;;;;;;22.17;9.80;;;;;;;9.79;100.00;100131.53;6213972;28;20132;-77
2023/11/01 03:11:31;;;;;;;17.02;7.75;;;;;;;9.79;100.00;100125.44;6228590;28;20461;-77
2023/11/01 03:14:33;;;;;;;16.35;7.90;;;;;;;9.82;100.00;100135.78;6214166;28;20050;-77
2023/11/01 03:17:35;;;;;;;17.35;8.10;;;;;;;9.80;100.00;100137.63;6192105;28;20043;-79
2023/11/01 03:20:38;;;;;;;21.58;8.50;;;;;;;9.84;100.00;100131.25;6196066;28;20054;-75
2023/11/01 03:23:39;;;;;;;18.65;7.93;;;;;;;9.85;100.00;100128.53;6192792;28;20042;-75
2023/11/01 03:26:42;;;;;;;15.48;7.68;;;;;;;9.87;100.00;100128.47;6190102;28;20328;-76
2023/11/01 03:29:43;;;;;;;13.85;7.25;;;;;;;9.89;100.00;100124.78;6180025;28;20090;-75
2023/11/01 03:32:45;;;;;;;15.57;7.70;;;;;;;9.96;100.00;100129.69;6179474;28;20367;-75
2023/11/01 03:35:46;;;;;;;15.75;8.10;;;;;;;9.92;100.00;100126.41;6180011;28;20047;-75
2023/11/01 03:38:48;;;;;;;15.10;7.03;;;;;;;9.93;100.00;100117.59;6179869;28;20057;-75
2023/11/01 03:41:50;;;;;;;18.10;7.68;;;;;;;9.94;100.00;100115.81;6190349;28;20052;-76
2023/11/01 03:44:52;;;;;;;14.52;7.20;;;;;;;9.93;100.00;100112.34;6215377;28;20478;-76
2023/11/01 03:47:53;;;;;;;16.42;7.93;;;;;;;9.93;100.00;100120.22;6202945;28;20046;-76
2023/11/01 03:50:55;;;;;;;14.25;7.43;;;;;;;9.99;100.00;100119.84;6203215;28;20435;-76
2023/11/01 03:53:56;;;;;;;16.55;7.50;;;;;;;9.99;100.00;100116.34;6203404;28;20133;-76
2023/11/01 03:56:59;;;;;;;16.67;7.70;;;;;;;9.99;100.00;100105.84;6203237;28;20333;-76
2023/11/01 04:00:00;;;;;;;17.00;7.97;;;;;;;10.00;100.00;100115.44;6203384;28;20064;-76
2023/11/01 04:03:02;;;;;;;13.60;6.95;;;;;;;10.02;100.00;100111.78;6203047;28;20122;-74
2023/11/01 04:06:04;;;;;;;16.15;7.45;;;;;;;10.08;100.00;100110.53;6203326;28;20081;-75
2023/11/01 04:09:06;;;;;;;17.65;7.53;;;;;;;10.08;100.00;100098.28;6203210;28;20057;-75
2023/11/01 04:12:08;;;;;;;14.55;7.05;;;;;;;10.12;100.00;100102.38;6203014;28;20053;-74
2023/11/01 04:15:12;;;;;;;13.93;6.60;;;;;;;10.12;100.00;100097.13;6209730;28;20057;-74
2023/11/01 04:18:13;;;;;;;15.55;7.35;;;;;;;10.10;100.00;100103.44;6218905;28;20476;-74
2023/11/01 04:21:15;;;;;;;11.65;5.88;;;;;;;10.07;100.00;100101.00;6226965;28;20073;-75
2023/11/01 04:24:17;;;;;;;12.98;6.40;;;;;;;10.03;100.00;100087.19;6226960;28;20049;-75
2023/11/01 04:27:19;;;;;;;14.48;7.07;;;;;;;9.97;100.00;100084.13;6227134;28;20054;-74
2023/11/01 04:30:21;;;;;;;16.05;6.63;;;;;;;9.93;100.00;100082.63;6226766;28;20055;-75
2023/11/01 04:33:22;;;;;;;9.85;5.10;;;;;;;9.91;100.00;100082.72;6226996;28;20049;-74
2023/11/01 04:36:26;;;;;;;11.70;6.60;;;;;;;9.87;100.00;100078.59;6226774;28;20046;-74
2023/11/01 04:39:28;;;;;;;9.77;5.28;;;;;;;9.85;100.00;100083.91;6227109;28;20484;-74
2023/11/01 04:42:30;;;;;;;11.57;5.60;;;;;;;9.78;100.00;100085.25;6226621;28;20054;-75
2023/11/01 04:45:33;;;;;;;12.68;5.80;;;;;;;9.75;100.00;100080.19;6247489;22;20492;-74
2023/11/01 04:48:34;;;;;;;10.60;5.78;;;;;;;9.71;100.00;100076.03;6202316;28;20050;-73
2023/11/01 04:51:35;;;;;;;10.85;6.10;;;;;;;9.73;100.00;100073.34;6217060;28;20057;-73
2023/11/01 04:54:37;;;;;;;13.70;6.43;;;;;;;9.71;100.00;100065.56;6221520;28;20061;-72
2023/11/01 04:57:41;;;;;;;14.27;5.88;;;;;;;9.73;100.00;100065.47;6213662;28;20053;-73
2023/11/01 05:00:43;;;;;;;10.02;5.60;;;;;;;9.69;100.00;100062.19;6242312;28;20495;-71
2023/11/01 05:03:44;;;;;;;8.63;5.03;;;;;;;9.68;100.00;100065.75;6237985;28;20052;-72
2023/11/01 05:06:45;;;;;;;13.63;6.97;;;;;;;9.64;100.00;100059.84;6250627;28;20061;-72
2023/11/01 05:09:47;;;;;;;12.75;6.35;;;;;;;9.63;100.00;100058.16;6250621;28;20477;-72
2023/11/01 05:12:50;;;;;;;10.77;5.63;;;;;;;9.65;100.00;100052.81;6250432;28;20430;-73
2023/11/01 05:15:52;;;;;;;13.52;6.35;;;;;;;9.65;100.00;100051.03;6238399;28;20053;-73
2023/11/01 05:18:54;;;;;;;11.77;4.85;;;;;;;9.73;100.00;100041.88;6246703;28;20460;-71
2023/11/01 05:21:55;;;;;;;15.05;6.32;;;;;;;9.74;100.00;100041.75;6249702;28;20053;-74
2023/11/01 05:24:58;;;;;;;14.75;6.82;;;;;;;9.74;100.00;100046.16;6250403;28;20052;-72
2023/11/01 05:28:00;;;;;;;10.35;5.25;;;;;;;9.81;100.00;100044.84;6250551;28;20183;-73
2023/11/01 05:31:02;;;;;;;8.52;4.75;;;;;;;9.86;100.00;100058.56;6250161;28;20057;-73
2023/11/01 05:34:06;;;;;;;8.40;4.57;;;;;;;9.84;100.00;100052.53;6250267;28;20045;-71
2023/11/01 05:37:09;;;;;;;8.45;5.03;;;;;;;9.84;100.00;100052.53;6250275;28;20076;-72
2023/11/01 05:40:14;;;;;;;9.60;4.60;;;;;;;9.90;100.00;100058.25;6250192;28;20057;-72
2023/11/01 05:43:16;;;;;;;6.22;4.00;;;;;;;9.89;100.00;100055.72;6250119;28;20053;-73
2023/11/01 05:46:21;;;;;;;7.38;4.13;;;;;;;9.93;100.00;100045.88;6249787;28;20049;-72
2023/11/01 05:49:22;;;;;;;6.43;3.85;;;;;;;9.98;100.00;100041.19;6250320;28;20618;-72
2023/11/01 05:52:24;;;;;;;10.50;5.10;;;;;;;9.94;100.00;100044.94;6227645;28;20046;-72
2023/11/01 05:55:25;;;;;;;5.85;3.65;;;;;;;9.96;100.00;100048.31;6233532;28;20057;-73
2023/11/01 05:58:29;;;;;;;6.40;3.92;;;;;;;9.98;100.00;100046.44;6225548;28;20060;-72
2023/11/01 06:01:30;;;;;;;7.72;4.40;;;;;;;9.99;100.00;100046.34;6201973;28;20050;-71
2023/11/01 06:04:32;;;;;;;7.00;4.35;;;;;;;10.00;100.00;100047.19;6201119;28;20046;-73
2023/11/01 06:07:34;;;;;;;8.07;4.13;;;;;;;10.03;100.00;100039.94;6200924;28;20058;-74
2023/11/01 06:10:36;;;;;;;7.25;3.67;;;;;;;10.05;100.00;100039.88;6201082;28;20062;-73
2023/11/01 06:13:38;;;;;;;7.80;3.92;;;;;;;10.07;100.00;100041.44;6200786;28;20054;-73
2023/11/01 06:16:40;;;;;;;6.07;3.85;;;;;;;10.09;100.00;100036.97;6201116;28;20054;-73
2023/11/01 06:19:41;;;;;;;5.97;4.07;;;;;;;10.09;100.00;100036.97;6200843;28;20458;-73
2023/11/01 06:22:42;;;;;;;6.68;3.50;;;;;;;10.13;100.00;100037.63;6200745;28;20058;-73
2023/11/01 06:25:44;;;;;;;6.85;3.80;;;;;;;10.15;100.00;100038.34;6200826;28;20447;-73
2023/11/01 06:28:47;;;;;;;7.35;4.30;;;;;;;10.12;100.00;100031.50;6200978;28;20055;-73
2023/11/01 06:31:48;;;;;;;8.77;3.30;;;;;;;10.13;100.00;100040.25;6200897;28;20061;-73
2023/11/01 06:34:49;;;;;;;6.20;3.40;;;;;;;10.14;100.00;100036.69;6205508;28;20050;-73
2023/11/01 06:37:51;;;;;;;5.20;3.50;;;;;;;10.10;100.00;100033.41;6205121;28;20058;-73
2023/11/01 06:40:52;;;;;;;3.78;2.60;;;;;;;10.15;100.00;100035.72;6205127;28;20054;-73
2023/11/01 06:43:55;;;;;;;7.65;2.90;;;;;;;10.16;100.00;100029.53;6204874;28;20379;-73
2023/11/01 06:46:56;;;;;;;4.40;2.60;;;;;;;10.14;100.00;100021.75;6204863;28;20042;-73
2023/11/01 06:49:58;;;;;;;4.32;2.85;;;;;;;10.14;100.00;100032.25;6206843;28;20046;-73
2023/11/01 06:52:59;;;;;;;3.90;2.60;;;;;;;10.16;100.00;100032.16;6237272;28;20363;-73
2023/11/01 06:56:00;;;;;;;5.55;2.60;;;;;;;10.18;100.00;100032.06;6250625;28;20056;-73
2023/11/01 06:59:04;;;;;;;4.72;2.85;;;;;;;10.17;100.00;100028.59;6241116;28;20050;-73
2023/11/01 07:02:06;;;;;;;8.48;3.08;;;;;;;10.17;100.00;100028.59;6236708;28;20369;-73
2023/11/01 07:05:07;;;;;;;9.45;2.17;;;;;;;10.20;100.00;100032.81;6245161;28;20053;-73
2023/11/01 07:08:09;;;;;;;3.95;2.65;;;;;;;10.22;100.00;100031.78;6253431;28;20450;-73
2023/11/01 07:11:10;;;;;;;4.20;2.50;;;;;;;10.24;100.00;100029.94;6250002;28;20053;-73
2023/11/01 07:14:13;;;;;;;6.93;2.33;;;;;;;10.29;100.00;100027.00;6245292;28;20128;-73
2023/11/01 07:17:15;;;;;;;3.30;2.20;;;;;;;10.35;100.00;100026.59;6248392;28;20045;-73
2023/11/01 07:20:17;;;;;;;4.15;2.17;;;;;;;10.35;100.00;100024.81;6234017;28;20057;-73
2023/11/01 07:23:18;;;;;;;5.28;2.90;;;;;;;10.33;100.00;100020.63;6233490;28;20347;-73
2023/11/01 07:26:19;;;;;;;4.97;2.60;;;;;;;10.33;100.00;100024.09;6224695;28;20053;-74
2023/11/01 07:29:22;;;;;;;4.65;2.33;;;;;;;10.34;100.00;100011.78;6217490;28;20370;-73
2023/11/01 07:32:24;;;;;;;2.47;2.10;;;;;;;10.35;100.00;100008.22;6235343;28;20054;-73
2023/11/01 07:35:25;;;;;;;5.68;2.42;;;;;;;10.40;100.00;100001.75;6231130;28;20045;-74
2023/11/01 07:38:26;;;;;;;5.13;2.13;;;;;;;10.44;100.00;99998.91;6238962;28;20042;-73
2023/11/01 07:41:28;;;;;;;3.35;2.08;;;;;;;10.48;100.00;100000.41;6235950;28;20335;-74
2023/11/01 07:44:31;;;;;;;6.35;1.77;;;;;;;10.50;100.00;100009.03;6232717;28;20449;-74
2023/11/01 07:47:32;;;;;;;3.30;1.75;;;;;;;10.52;100.00;100007.16;6232685;28;20060;-74
2023/11/01 07:50:34;;;;;;;3.08;2.33;;;;;;;10.55;100.00;100009.59;6245302;28;20053;-74
2023/11/01 07:53:36;;;;;;;7.68;2.20;;;;;;;10.53;100.00;100001.78;6252193;28;20052;-73
2023/11/01 07:56:37;;;;;;;3.92;2.20;;;;;;;10.58;100.00;99999.72;6242004;28;20129;-73
2023/11/01 07:59:40;;;;;;;3.15;2.10;;;;;;;10.65;100.00;99997.53;6243545;28;20052;-73
2023/11/01 08:02:42;;;;;;;4.75;2.60;;;;;;;10.70;100.00;100003.31;6244333;28;20061;-73
2023/11/01 08:05:43;;;;;;;3.70;2.10;;;;;;;10.65;100.00;100000.16;6220413;28;20049;-73
2023/11/01 08:08:45;;;;;;;4.05;1.85;;;;;;;10.66;100.00;99986.91;6221443;28;20043;-73
2023/11/01 08:11:46;;;;;;;7.28;2.40;;;;;;;10.72;100.00;99993.56;6239738;28;20053;-74
2023/11/01 08:14:50;;;;;;;7.45;1.98;;;;;;;10.71;100.00;99983.13;6236200;28;20346;-74
2023/11/01 08:17:51;;;;;;;4.00;1.77;;;;;;;10.72;100.00;99984.81;6222119;28;20046;-75
2023/11/01 08:20:53;;;;;;;3.03;1.83;;;;;;;10.79;100.00;99984.31;6221357;28;20053;-75
2023/11/01 08:23:54;;;;;;;3.33;1.65;;;;;;;10.73;100.00;99982.09;6232884;28;20057;-74
2023/11/01 08:26:56;;;;;;;2.25;1.90;;;;;;;10.79;100.00;99984.31;6226728;28;20165;-75
2023/11/01 08:29:59;;;;;;;3.35;1.65;;;;;;;10.82;100.00;99984.13;6228207;28;20061;-74
2023/11/01 08:33:00;;;;;;;3.70;1.48;;;;;;;10.82;100.00;99976.22;6237721;28;20046;-75
2023/11/01 08:36:02;;;;;;;3.67;1.83;;;;;;;10.86;100.00;99984.75;6236635;28;20056;-74
2023/11/01 08:39:04;;;;;;;9.10;2.20;;;;;;;10.82;100.00;99976.22;6242331;28;20051;-75
2023/11/01 08:42:06;;;;;;;2.50;1.50;;;;;;;10.83;100.00;99970.03;6242669;28;20136;-75
2023/11/01 08:45:09;;;;;;;1.42;1.30;;;;;;;10.85;100.00;99965.50;6237647;28;20054;-74
2023/11/01 08:48:12;;;;;;;2.38;1.33;;;;;;;10.83;100.00;99967.38;6233691;28;20056;-76
2023/11/01 08:51:14;;;;;;;4.07;2.00;;;;;;;10.86;100.00;99969.00;6229895;28;20050;-76
2023/11/01 08:54:16;;;;;;;2.65;1.70;;;;;;;10.91;100.00;99966.88;6240387;28;20046;-75
2023/11/01 08:57:22;;;;;;;3.35;1.52;;;;;;;10.91;100.00;99953.75;6240042;28;20068;-75
2023/11/01 09:00:24;;;;;;;5.30;1.60;;;;;;;10.92;100.00;99963.31;6231416;28;20052;-73
2023/11/01 09:03:26;;;;;;;5.32;2.00;;;;;;;10.94;100.00;99958.78;6242357;28;20057;-76
2023/11/01 09:06:30;;;;;;;4.47;2.10;;;;;;;10.92;100.00;99961.53;6227399;28;20068;-75
2023/11/01 09:09:32;;;;;;;3.33;1.50;;;;;;;10.91;100.00;99954.59;6250468;28;20054;-76
2023/11/01 09:12:34;;;;;;;3.72;1.50;;;;;;;10.92;100.00;99951.00;6249040;28;20396;-76
2023/11/01 09:15:37;;;;;;;4.40;1.95;;;;;;;10.84;100.00;99957.72;6250411;28;20050;-76
2023/11/01 09:18:38;;;;;;;1.98;1.33;;;;;;;10.84;100.00;99960.34;6242241;28;20050;-76
2023/11/01 09:21:39;;;;;;;2.38;1.08;;;;;;;10.87;100.00;99950.47;6241721;28;20053;-75
2023/11/01 09:24:41;;;;;;;2.35;1.35;;;;;;;10.90;100.00;99947.66;6226284;28;20462;-75
2023/11/01 09:27:42;;;;;;;2.72;1.25;;;;;;;10.93;100.00;99950.03;6231153;28;20050;-76
2023/11/01 09:30:45;;;;;;;3.35;1.10;;;;;;;11.03;100.00;99952.88;6240798;28;20084;-76
2023/11/01 09:33:48;;;;;;;1.40;1.17;;;;;;;11.04;100.00;99945.88;6244680;28;20548;-74
2023/11/01 09:36:51;;;;;;;4.47;1.17;;;;;;;11.01;100.00;99946.91;6239012;28;20052;-74
2023/11/01 09:39:53;;;;;;;3.33;1.27;;;;;;;11.03;100.00;99944.16;6234911;28;20331;-74
2023/11/01 09:42:54;;;;;;;1.50;1.10;;;;;;;11.06;100.00;99947.44;6237326;28;20059;-74
2023/11/01 09:45:57;;;;;;;0.88;0.73;;;;;;;11.11;100.00;99947.13;6247390;28;20052;-75
2023/11/01 09:49:00;;;;;;;0.85;0.85;;;;;;;11.11;100.00;99950.59;6241974;28;20063;-74
2023/11/01 09:52:04;;;;;;;1.83;1.10;;;;;;;11.09;100.00;99946.41;6249638;28;20053;-74
2023/11/01 09:55:07;;;;;;;2.92;0.75;;;;;;;11.16;100.00;99948.47;6237497;28;20596;-74
2023/11/01 09:58:10;;;;;;;2.90;0.98;;;;;;;11.25;100.00;99951.44;6237248;28;20060;-74
2023/11/01 10:01:13;;;;;;;2.92;1.00;;;;;;;11.33;100.00;99944.69;6233294;28;20050;-73
2023/11/01 10:04:15;;;;;;;3.17;1.10;;;;;;;11.36;100.00;99944.50;6220013;28;20080;-74
2023/11/01 10:07:16;;;;;;;1.33;0.70;;;;;;;11.42;100.00;99935.31;6228491;28;20052;-74
2023/11/01 10:10:19;;;;;;;1.83;0.60;;;;;;;11.45;100.00;99936.91;6230084;28;20069;-74
2023/11/01 10:13:20;;;;;;;2.85;0.77;;;;;;;11.50;100.00;99938.28;6230106;28;20069;-74
2023/11/01 10:16:23;;;;;;;2.33;0.75;;;;;;;11.56;100.00;99926.47;6229867;28;20046;-74
2023/11/01 10:19:25;;;;;;;1.33;1.00;;;;;;;11.57;100.00;99930.78;6229868;28;20058;-74
2023/11/01 10:22:26;;;;;;;3.55;1.20;;;;;;;11.56;100.00;99921.19;6228930;28;20050;-74
2023/11/01 10:25:28;;;;;;;1.10;0.82;;;;;;;11.61;100.00;99919.91;6218813;28;20046;-75
2023/11/01 10:28:33;;;;;;;1.90;1.10;;;;;;;11.62;100.00;99916.34;6229101;28;20053;-74
2023/11/01 10:31:36;;;;;;;2.35;1.10;;;;;;;11.71;100.00;99917.47;6229209;28;20058;-76
2023/11/01 10:34:38;;;;;;;3.92;1.10;;;;;;;11.79;100.00;99904.59;6229725;28;20434;-75
2023/11/01 10:37:40;;;;;;;2.88;1.10;;;;;;;11.86;100.00;99912.97;6229063;28;20137;-76
2023/11/01 10:40:42;;;;;;;2.58;1.17;;;;;;;11.90;100.00;99911.78;6229625;28;20057;-75
2023/11/01 10:43:43;;;;;;;2.13;1.20;;;;;;;11.92;100.00;99900.19;6229223;28;20058;-75
2023/11/01 10:46:46;;;;;;;1.17;0.88;;;;;;;11.95;100.00;99895.66;6249442;23;20346;-78
2023/11/01 10:49:49;;;;;;;1.20;0.88;;;;;;;12.00;100.00;99893.53;6228902;28;20421;-76
2023/11/01 10:52:51;;;;;;;1.02;0.93;;;;;;;12.02;100.00;99887.19;6228712;28;20057;-78
2023/11/01 10:55:54;;;;;;;3.40;1.25;;;;;;;12.05;100.00;99894.03;6232377;28;20076;-76
2023/11/01 10:59:03;;;;;;;2.30;1.10;;;;;;;12.14;100.00;99888.09;6253369;28;20052;-78
2023/11/01 11:02:16;;;;;;;1.60;0.95;;;;;;;12.16;100.00;99883.53;6253170;28;20111;-78
2023/11/01 11:05:23;;;;;;;3.70;1.00;;;;;;;12.27;100.00;99882.75;6253492;28;20485;-78
2023/11/01 11:08:25;;;;;;;2.25;0.88;;;;;;;12.32;100.00;99886.72;6228664;28;20054;-75
2023/11/01 11:11:26;;;;;;;3.25;1.30;;;;;;;12.33;100.00;99884.91;6228835;28;20446;-77
2023/11/01 11:14:40;;;;;;;3.20;1.10;;;;;;;12.41;100.00;99887.84;6228877;28;20049;-77
2023/11/01 11:18:06;;;;;;;1.00;0.80;;;;;;;12.47;100.00;99889.16;6251780;28;20049;-77
2023/11/01 11:21:08;;;;;;;2.72;0.80;;;;;;;12.52;100.00;99874.69;6277531;28;20495;-78
2023/11/01 11:24:42;;;;;;;3.08;0.80;;;;;;;12.57;100.00;99872.53;6263077;28;20046;-79
2023/11/01 11:27:51;;;;;;;2.15;1.05;;;;;;;12.64;100.00;99868.47;6252952;28;20056;-77
2023/11/01 11:31:03;;;;;;;2.88;1.13;;;;;;;12.76;100.00;99869.31;6252690;28;20052;-77
2023/11/01 11:34:13;;;;;;;2.63;0.95;;;;;;;12.73;100.00;99861.69;6252715;28;20064;-77
2023/11/01 11:37:16;;;;;;;0.85;0.60;;;;;;;12.85;100.00;99860.75;6252526;28;20076;-78
2023/11/01 11:40:18;;;;;;;5.82;1.00;;;;;;;12.87;100.00;99856.19;6252352;28;20501;-76
2023/11/01 11:43:19;;;;;;;4.95;1.10;;;;;;;12.94;100.00;99851.25;6252601;28;20054;-77
2023/11/01 11:46:28;;;;;;;1.27;0.77;;;;;;;13.00;100.00;99855.25;6252331;28;20056;-76
2023/11/01 11:49:33;;;;;;;;;;;;;;;13.10;100.00;99857.03;6252981;28;20211;-75
2023/11/01 11:52:35;;;;;;;8.82;0.80;;;;;;;13.19;100.00;99851.03;6251942;28;19921;-77
2023/11/01 11:55:40;;;;;;;1.35;0.88;;;;;;;13.32;100.00;99847.47;6252444;28;20045;-76
2023/11/01 11:58:42;;;;;;;2.03;0.80;;;;;;;13.44;100.00;99847.34;6252358;28;20053;-76
2023/11/01 12:01:43;;;;;;;3.15;1.30;;;;;;;13.42;100.00;99848.41;6251674;28;20128;-74
2023/11/01 12:04:48;;;;;;;2.65;0.82;;;;;;;13.29;100.00;99851.19;6251853;28;20053;-73
2023/11/01 12:07:49;;;;;;;3.35;0.80;;;;;;;13.39;100.00;99838.91;6252364;28;20048;-74
2023/11/01 12:10:50;;;;;;;6.00;0.95;;;;;;;13.43;100.00;99836.88;6251859;28;20079;-74
2023/11/01 12:13:52;;;;;;;3.65;1.10;;;;;;;13.42;100.00;99835.22;6251811;28;20049;-76
2023/11/01 12:16:56;;;;;;;9.68;1.00;;;;;;;13.51;100.00;99838.91;6249134;28;20444;-73
2023/11/01 12:19:58;;;;;;;3.90;0.70;;;;;;;13.55;100.00;99822.72;6246143;28;20053;-73
2023/11/01 12:23:06;;;;;;;4.50;0.95;;;;;;;13.53;100.00;99821.97;6251316;28;20063;-74
2023/11/01 12:26:08;;;;;;;3.92;0.82;;;;;;;13.53;100.00;99814.06;6251217;28;20045;-76
2023/11/01 12:29:11;;;;;;;4.57;1.10;;;;;;;13.55;100.00;99816.59;6250761;28;20049;-72
2023/11/01 12:32:14;;;;;;;4.32;0.90;;;;;;;13.60;100.00;99809.13;6248849;28;20041;-73
2023/11/01 12:35:17;;;;;;;5.30;0.70;;;;;;;13.41;100.00;99799.22;6251498;28;20037;-74
2023/11/01 12:38:18;;;;;;;3.90;1.75;;;;;;;13.55;100.00;99798.13;6251204;28;20053;-75
2023/11/01 12:41:20;;;;;;;8.00;0.98;;;;;;;13.40;100.00;99795.75;6250858;28;20050;-74
2023/11/01 12:44:22;;;;;;;5.30;1.35;;;;;;;13.40;100.00;99795.75;6250965;28;20049;-72
2023/11/01 12:47:24;;;;;;;7.95;1.13;;;;;;;13.39;100.00;99786.13;6250894;28;20057;-73
2023/11/01 12:50:29;;;;;;;1.52;0.82;;;;;;;13.44;100.00;99786.63;6250945;28;20056;-73
2023/11/01 12:53:30;;;;;;;1.05;0.40;;;;;;;13.49;100.00;99767.78;6250596;28;20045;-73
2023/11/01 12:56:32;;;;;;;1.35;0.77;;;;;;;13.46;100.00;99768.03;6247433;28;20362;-74
2023/11/01 12:59:33;;;;;;;2.92;1.13;;;;;;;13.44;100.00;99764.66;6239169;28;20056;-74
2023/11/01 13:02:36;;;;;;;4.53;0.70;;;;;;;13.43;100.00;99760.34;6238979;28;20049;-76
2023/11/01 13:05:39;;;;;;;1.52;0.90;;;;;;;13.43;100.00;99752.44;6237320;28;20422;-75
2023/11/01 13:08:41;;;;;;;2.58;0.82;;;;;;;13.41;100.00;99747.28;6237880;28;20092;-76
2023/11/01 13:11:42;;;;;;;1.25;0.70;;;;;;;13.46;100.00;99741.63;6237757;28;20050;-74
2023/11/01 13:14:44;;;;;;;2.90;1.00;;;;;;;13.49;100.00;99738.75;6239641;28;20052;-75
2023/11/01 13:17:47;;;;;;;3.60;1.48;;;;;;;13.51;100.00;99738.63;6240334;28;20046;-75
2023/11/01 13:20:50;;;;;;;4.38;0.80;;;;;;;13.54;100.00;99733.09;6242636;28;20049;-75
2023/11/01 13:23:52;;;;;;;0.93;0.63;;;;;;;13.50;100.00;99723.75;6237663;28;20037;-75
2023/11/01 13:26:53;;;;;;;2.75;0.93;;;;;;;13.54;100.00;99730.47;6233043;28;20046;-75
2023/11/01 13:29:55;;;;;;;1.25;0.80;;;;;;;13.67;100.00;99725.81;6225565;28;20135;-74
2023/11/01 13:32:56;;;;;;;2.60;0.80;;;;;;;13.74;100.00;99720.88;6234665;28;20057;-75
2023/11/01 13:36:00;;;;;;;2.78;1.00;;;;;;;13.79;100.00;99716.06;6274868;28;20171;-75
2023/11/01 13:39:01;;;;;;;4.95;0.70;;;;;;;14.00;100.00;99713.44;6236147;28;20133;-75
2023/11/01 13:42:03;;;;;;;3.17;0.85;;;;;;;14.16;100.00;99706.69;6228506;28;20056;-75
2023/11/01 13:45:05;;;;;;;0.45;0.43;;;;;;;14.33;100.00;99701.78;6230831;28;20054;-73
2023/11/01 13:48:06;;;;;;;5.20;1.15;;;;;;;14.69;100.00;99695.16;6230475;28;20049;-74
2023/11/01 13:51:09;;;;;;;0.52;0.47;;;;;;;14.69;100.00;99696.00;6230326;28;20434;-74
2023/11/01 13:54:11;;;;;;;1.85;0.70;;;;;;;14.38;100.00;99684.56;6230495;28;20061;-75
2023/11/01 13:57:12;;;;;;;1.48;0.70;;;;;;;14.27;100.00;99686.47;6245285;28;20572;-75
2023/11/01 14:00:15;;;;;;;2.03;0.70;;;;;;;14.29;100.00;99685.34;6254827;28;20434;-74
2023/11/01 14:03:16;;;;;;;0.63;0.40;;;;;;;14.25;100.00;99668.09;6254505;28;20056;-74